KCHO

Charlottesville-Albemarle Airport

Charlottesville, Virginia, USA
METAR KCHO 240053Z 07007KT 10SM CLR 24/16 A3008 RMK AO2 SLP176 T02440156
Observed Flight Rules
May-24 @ 00:53 UTC (an hour ago) Visual Flight Rules
Wind Visibility Clouds
70° at 7 knots 10 miles
  • Clear skies
Temperatures Readings
Current 24°C / 75°F
Dewpoint 16°C / 61°F
Humidity 61%
Altimeter 30.08" Hg
Pressure 1017.6 hPa
Elevation 192
METAR KCHO 240053Z 07007KT 10SM CLR 24/16 A3008 RMK AO2 SLP176 T02440156
Observed Flight Rules
May-24 @ 00:53 UTC
(an hour ago)
VFR
Wind Visibility
70° at 7 knots 10 miles
Clouds
  • Clear skies
Temperature Dewpoint
24°C / 75°F 16°C / 61°F
Humidity Altimeter Pressure
61% 30.08" Hg 1017.6 hPa